createdAt,value
2022-10-31T00:04:53.952Z,14.10
2022-10-31T00:09:56.544Z,14.10
2022-10-31T00:14:59.927Z,14.10
2022-10-31T00:20:02.823Z,14.10
2022-10-31T00:25:05.710Z,14.00
2022-10-31T00:30:09.037Z,14.00
2022-10-31T00:35:11.933Z,13.90
2022-10-31T00:40:14.799Z,13.90
2022-10-31T00:45:17.692Z,13.80
2022-10-31T00:50:20.536Z,13.80
2022-10-31T00:55:23.391Z,13.80
2022-10-31T01:00:27.007Z,13.60
2022-10-31T01:05:29.798Z,13.50
2022-10-31T01:10:32.485Z,13.50
2022-10-31T01:15:36.089Z,13.50
2022-10-31T01:20:38.813Z,13.40
2022-10-31T01:25:43.527Z,13.40
2022-10-31T01:30:46.375Z,13.40
2022-10-31T01:35:49.167Z,13.50
2022-10-31T01:40:52.510Z,13.40
2022-10-31T01:45:55.617Z,13.40
2022-10-31T01:50:58.549Z,13.40
2022-10-31T01:56:01.368Z,13.40
2022-10-31T02:01:07.650Z,13.30
2022-10-31T02:06:19.199Z,13.30
2022-10-31T02:11:22.109Z,13.20
2022-10-31T02:16:24.971Z,13.30
2022-10-31T02:21:39.051Z,13.20
2022-10-31T02:26:51.994Z,13.10
2022-10-31T02:32:06.817Z,13.10
2022-10-31T02:37:24.304Z,13.00
2022-10-31T02:42:48.796Z,13.00
2022-10-31T02:47:54.869Z,13.00
2022-10-31T02:52:57.678Z,12.90
2022-10-31T02:58:16.505Z,12.90
2022-10-31T03:03:24.985Z,12.90
2022-10-31T03:08:43.182Z,12.90
2022-10-31T03:13:45.880Z,12.80
2022-10-31T03:18:56.882Z,12.80
2022-10-31T03:24:00.847Z,12.70
2022-10-31T03:29:06.870Z,12.70
2022-10-31T03:34:11.288Z,12.70
2022-10-31T03:39:15.633Z,12.70
2022-10-31T03:44:21.241Z,12.70
2022-10-31T03:49:24.127Z,12.60
2022-10-31T03:54:32.934Z,12.60
2022-10-31T03:59:39.839Z,12.60
2022-10-31T04:04:43.528Z,12.70
2022-10-31T04:09:47.779Z,12.60
2022-10-31T04:14:51.792Z,12.70
2022-10-31T04:19:54.609Z,12.70
2022-10-31T04:24:57.379Z,12.70
2022-10-31T04:30:00.861Z,12.70
2022-10-31T04:35:03.935Z,12.70
2022-10-31T04:40:07.355Z,12.70
2022-10-31T04:45:10.414Z,12.80
2022-10-31T04:50:13.113Z,12.80
2022-10-31T04:55:16.127Z,12.80
2022-10-31T05:00:21.831Z,12.80
2022-10-31T05:05:27.160Z,12.90
2022-10-31T05:10:30.995Z,12.80
2022-10-31T05:15:34.365Z,12.80
2022-10-31T05:20:37.177Z,12.80
2022-10-31T05:25:41.187Z,12.90
2022-10-31T05:30:44.026Z,12.90
2022-10-31T05:35:46.823Z,12.90
2022-10-31T05:40:49.643Z,12.90
2022-10-31T05:45:56.816Z,12.90
2022-10-31T05:50:59.644Z,12.90
2022-10-31T05:56:02.420Z,12.90
2022-10-31T06:01:06.462Z,13.00
2022-10-31T06:06:09.294Z,13.00
2022-10-31T06:11:12.094Z,13.10
2022-10-31T06:16:14.907Z,13.10
2022-10-31T06:21:19.121Z,13.20
2022-10-31T06:26:22.277Z,13.20
2022-10-31T06:31:25.081Z,13.20
2022-10-31T06:41:37.564Z,13.20
2022-10-31T06:46:40.481Z,13.30
2022-10-31T06:51:43.754Z,13.30
2022-10-31T06:56:49.263Z,13.30
2022-10-31T07:01:52.181Z,13.40
2022-10-31T07:06:55.740Z,13.40
2022-10-31T07:11:59.642Z,13.40
2022-10-31T07:17:02.418Z,13.50
2022-10-31T07:22:05.172Z,13.50
2022-10-31T07:27:08.094Z,13.50
2022-10-31T07:32:10.877Z,13.50
2022-10-31T07:37:13.597Z,13.50
2022-10-31T07:42:16.532Z,13.50
2022-10-31T07:47:19.491Z,13.40
2022-10-31T07:52:22.281Z,13.50
2022-10-31T07:57:25.536Z,13.50
2022-10-31T08:02:28.579Z,13.50
2022-10-31T08:07:37.753Z,13.50
2022-10-31T08:12:43.535Z,13.50
2022-10-31T08:17:46.302Z,13.50
2022-10-31T08:23:03.931Z,13.60
2022-10-31T08:28:08.011Z,13.60
2022-10-31T08:33:16.816Z,13.60
2022-10-31T08:38:19.622Z,13.60
2022-10-31T08:43:22.360Z,13.60
2022-10-31T08:48:25.067Z,13.60
2022-10-31T08:53:28.067Z,13.60
2022-10-31T08:58:30.795Z,13.70
2022-10-31T09:03:33.405Z,13.70
2022-10-31T09:08:37.288Z,13.70
2022-10-31T09:13:41.426Z,13.70
2022-10-31T09:18:44.455Z,13.70
2022-10-31T09:23:47.259Z,13.70
2022-10-31T09:28:50.037Z,13.70
2022-10-31T09:33:54.701Z,13.70
2022-10-31T09:38:57.697Z,13.70
2022-10-31T09:44:07.228Z,13.70
2022-10-31T09:49:28.971Z,13.70
2022-10-31T09:54:53.399Z,13.70
2022-10-31T09:59:56.664Z,13.70
2022-10-31T10:05:26.978Z,13.70
2022-10-31T10:11:08.228Z,13.80
2022-10-31T10:16:16.868Z,13.80
2022-10-31T10:21:45.997Z,13.90
2022-10-31T10:26:54.824Z,13.90
2022-10-31T10:32:02.006Z,14.00
2022-10-31T10:37:15.121Z,13.90
2022-10-31T10:42:36.241Z,13.90
2022-10-31T10:47:56.417Z,14.00
2022-10-31T10:53:02.514Z,14.10
2022-10-31T10:58:08.794Z,14.10
2022-10-31T11:03:11.958Z,14.10
2022-10-31T11:08:27.456Z,14.20
2022-10-31T11:13:32.370Z,14.20
2022-10-31T11:18:38.805Z,14.20
2022-10-31T11:23:41.548Z,14.20
2022-10-31T11:28:44.990Z,14.20
2022-10-31T11:33:50.738Z,14.20
2022-10-31T11:38:54.421Z,14.20
2022-10-31T11:44:06.537Z,14.20
2022-10-31T11:49:20.497Z,14.20
2022-10-31T11:54:42.633Z,14.20
2022-10-31T11:59:53.523Z,14.30
2022-10-31T12:05:12.527Z,14.30
2022-10-31T12:10:17.076Z,14.20
2022-10-31T12:15:37.722Z,14.20
2022-10-31T12:21:05.876Z,14.30
2022-10-31T12:26:46.813Z,14.30
2022-10-31T12:32:20.717Z,14.30
2022-10-31T12:37:30.579Z,14.40
2022-10-31T12:42:55.499Z,14.40
2022-10-31T12:47:58.668Z,14.40
2022-10-31T12:53:26.423Z,14.40
2022-10-31T12:58:40.091Z,14.40
2022-10-31T13:04:15.283Z,14.30
2022-10-31T13:09:41.951Z,14.30
2022-10-31T13:14:55.712Z,14.30
2022-10-31T13:20:25.291Z,14.30
2022-10-31T13:25:38.671Z,14.30
2022-10-31T13:30:42.743Z,14.30
2022-10-31T13:36:04.391Z,14.20
2022-10-31T13:41:23.800Z,14.20
2022-10-31T13:46:39.215Z,14.20
2022-10-31T13:51:45.080Z,14.20
2022-10-31T13:56:53.233Z,14.10
2022-10-31T14:01:58.937Z,14.10
2022-10-31T14:07:14.332Z,14.10
2022-10-31T14:12:39.736Z,14.00
2022-10-31T14:18:04.626Z,14.00
2022-10-31T14:23:29.615Z,14.00
2022-10-31T14:28:35.412Z,14.00
2022-10-31T14:33:43.192Z,13.90
2022-10-31T14:39:23.200Z,13.90
2022-10-31T14:44:56.338Z,13.80
2022-10-31T14:50:24.466Z,13.80
2022-10-31T14:55:28.347Z,13.80
2022-10-31T15:00:33.299Z,13.80
2022-10-31T15:05:43.457Z,13.70
2022-10-31T15:10:47.024Z,13.70
2022-10-31T15:15:53.091Z,13.70
2022-10-31T15:20:57.789Z,13.70
2022-10-31T15:26:02.522Z,13.60
2022-10-31T15:31:06.189Z,13.60
2022-10-31T15:36:24.112Z,13.60
2022-10-31T15:41:33.836Z,13.60
2022-10-31T15:46:37.215Z,13.60
2022-10-31T15:51:40.646Z,13.60
2022-10-31T15:56:44.516Z,13.60
2022-10-31T16:02:02.592Z,13.50
2022-10-31T16:07:22.869Z,13.60
2022-10-31T16:12:43.644Z,13.60
2022-10-31T16:17:50.061Z,13.50
2022-10-31T16:22:54.486Z,13.50
2022-10-31T16:28:05.501Z,13.50
2022-10-31T16:33:28.798Z,13.50
2022-10-31T16:38:31.580Z,13.40
2022-10-31T16:43:35.730Z,13.40
2022-10-31T16:48:38.677Z,13.40
2022-10-31T16:53:46.420Z,13.30
2022-10-31T16:58:49.566Z,13.30
2022-10-31T17:03:52.374Z,13.20
2022-10-31T17:08:55.530Z,13.20
2022-10-31T17:13:58.627Z,13.20
2022-10-31T17:19:02.764Z,13.20
2022-10-31T17:24:06.398Z,13.10
2022-10-31T17:29:09.223Z,13.10
2022-10-31T17:34:11.995Z,13.10
2022-10-31T17:39:14.694Z,13.10
2022-10-31T17:44:17.776Z,13.10
2022-10-31T17:49:21.790Z,13.00
2022-10-31T17:54:24.574Z,13.00
2022-10-31T17:59:30.118Z,13.00
2022-10-31T18:04:32.939Z,13.00
2022-10-31T18:09:35.703Z,13.00
2022-10-31T18:14:38.525Z,12.90
2022-10-31T18:19:41.286Z,12.90
2022-10-31T18:24:44.076Z,12.90
2022-10-31T18:29:46.903Z,12.90
2022-10-31T18:34:50.348Z,12.90
2022-10-31T18:39:53.111Z,12.90
2022-10-31T18:44:55.989Z,12.90
2022-10-31T18:49:58.809Z,12.90
2022-10-31T18:55:01.589Z,12.90
2022-10-31T19:00:05.872Z,12.90
2022-10-31T19:05:09.877Z,12.90
2022-10-31T19:10:12.850Z,12.90
2022-10-31T19:15:15.699Z,12.90
2022-10-31T19:20:19.127Z,12.90
2022-10-31T19:25:22.174Z,12.90
2022-10-31T19:30:25.098Z,12.90
2022-10-31T19:35:27.956Z,12.90
2022-10-31T19:40:31.181Z,12.80
2022-10-31T19:45:34.108Z,12.80
2022-10-31T19:50:36.908Z,12.80
2022-10-31T19:55:40.826Z,12.80
2022-10-31T20:00:43.908Z,12.80
2022-10-31T20:05:47.041Z,12.70
2022-10-31T20:10:57.432Z,12.70
2022-10-31T20:16:03.553Z,12.70
2022-10-31T20:21:12.773Z,12.70
2022-10-31T20:26:18.300Z,12.60
2022-10-31T20:31:23.459Z,12.70
2022-10-31T20:36:28.807Z,12.60
2022-10-31T20:41:31.632Z,12.70
2022-10-31T20:46:34.567Z,12.70
2022-10-31T20:51:37.343Z,12.70
2022-10-31T20:56:40.293Z,12.70
2022-10-31T21:01:43.092Z,12.70
2022-10-31T21:06:49.409Z,12.70
2022-10-31T21:11:52.548Z,12.70
2022-10-31T21:16:55.283Z,12.70
2022-10-31T21:21:58.717Z,12.70
2022-10-31T21:27:02.809Z,12.70
2022-10-31T21:32:06.005Z,12.70
2022-10-31T21:37:08.745Z,12.70
2022-10-31T21:42:11.627Z,12.70
2022-10-31T21:47:14.518Z,12.70
2022-10-31T21:52:17.383Z,12.60
2022-10-31T21:57:20.131Z,12.60
2022-10-31T22:02:23.021Z,12.60
2022-10-31T22:07:26.754Z,12.60
2022-10-31T22:12:29.552Z,12.60
2022-10-31T22:17:32.962Z,12.50
2022-10-31T22:22:35.918Z,12.50
2022-10-31T22:27:38.734Z,12.50
2022-10-31T22:32:41.615Z,12.50
2022-10-31T22:37:44.375Z,12.50
2022-10-31T22:42:47.232Z,12.50
2022-10-31T22:47:50.057Z,12.50
2022-10-31T22:52:52.867Z,12.40
2022-10-31T22:57:55.838Z,12.40
2022-10-31T23:02:58.590Z,12.40
2022-10-31T23:08:01.522Z,12.40
2022-10-31T23:13:23.067Z,12.30
2022-10-31T23:18:48.564Z,12.30
2022-10-31T23:23:49.207Z,12.30
2022-10-31T23:28:52.564Z,12.30
2022-10-31T23:33:55.339Z,12.30
2022-10-31T23:38:58.116Z,12.30
2022-10-31T23:44:00.934Z,12.30
2022-10-31T23:49:03.760Z,12.30
2022-10-31T23:54:07.016Z,12.30
2022-10-31T23:59:09.895Z,12.30
